sensor_id;sensor_type;location;lat;lon;timestamp;P1;durP1;ratioP1;P2;durP2;ratioP2
49139;SDS011;34959;49.310;8.646;2022-08-21T00:02:15;2.85;;;1.40;;
49139;SDS011;34959;49.310;8.646;2022-08-21T00:04:47;2.67;;;1.05;;
49139;SDS011;34959;49.310;8.646;2022-08-21T00:07:13;4.07;;;1.50;;
49139;SDS011;34959;49.310;8.646;2022-08-21T00:09:38;2.55;;;1.60;;
49139;SDS011;34959;49.310;8.646;2022-08-21T00:12:04;3.20;;;1.30;;
49139;SDS011;34959;49.310;8.646;2022-08-21T00:14:31;5.03;;;1.60;;
49139;SDS011;34959;49.310;8.646;2022-08-21T00:16:57;2.03;;;1.13;;
49139;SDS011;34959;49.310;8.646;2022-08-21T00:19:23;4.20;;;1.40;;
49139;SDS011;34959;49.310;8.646;2022-08-21T00:21:50;2.08;;;1.13;;
49139;SDS011;34959;49.310;8.646;2022-08-21T00:24:17;3.45;;;1.38;;
49139;SDS011;34959;49.310;8.646;2022-08-21T00:26:43;3.00;;;1.48;;
49139;SDS011;34959;49.310;8.646;2022-08-21T00:29:09;3.20;;;1.50;;
49139;SDS011;34959;49.310;8.646;2022-08-21T00:31:35;3.22;;;1.55;;
49139;SDS011;34959;49.310;8.646;2022-08-21T00:34:00;3.78;;;1.60;;
49139;SDS011;34959;49.310;8.646;2022-08-21T00:36:26;2.35;;;1.38;;
49139;SDS011;34959;49.310;8.646;2022-08-21T00:38:52;1.80;;;1.10;;
49139;SDS011;34959;49.310;8.646;2022-08-21T00:41:18;2.95;;;1.38;;
49139;SDS011;34959;49.310;8.646;2022-08-21T00:43:43;3.13;;;1.67;;
49139;SDS011;34959;49.310;8.646;2022-08-21T00:46:09;1.95;;;1.30;;
49139;SDS011;34959;49.310;8.646;2022-08-21T00:48:34;3.45;;;1.40;;
49139;SDS011;34959;49.310;8.646;2022-08-21T00:51:05;3.00;;;1.30;;
49139;SDS011;34959;49.310;8.646;2022-08-21T00:53:36;3.67;;;1.60;;
49139;SDS011;34959;49.310;8.646;2022-08-21T00:56:03;1.88;;;1.30;;
49139;SDS011;34959;49.310;8.646;2022-08-21T00:58:30;2.35;;;1.38;;
49139;SDS011;34959;49.310;8.646;2022-08-21T01:00:56;3.78;;;1.50;;
49139;SDS011;34959;49.310;8.646;2022-08-21T01:03:24;3.72;;;1.42;;
49139;SDS011;34959;49.310;8.646;2022-08-21T01:05:51;2.42;;;1.50;;
49139;SDS011;34959;49.310;8.646;2022-08-21T01:08:17;2.13;;;1.30;;
49139;SDS011;34959;49.310;8.646;2022-08-21T01:10:43;3.40;;;1.35;;
49139;SDS011;34959;49.310;8.646;2022-08-21T01:13:09;2.50;;;1.48;;
49139;SDS011;34959;49.310;8.646;2022-08-21T01:15:36;2.70;;;1.60;;
49139;SDS011;34959;49.310;8.646;2022-08-21T01:18:04;2.22;;;1.27;;
49139;SDS011;34959;49.310;8.646;2022-08-21T01:20:31;2.80;;;1.60;;
49139;SDS011;34959;49.310;8.646;2022-08-21T01:22:57;2.58;;;1.55;;
49139;SDS011;34959;49.310;8.646;2022-08-21T01:25:22;3.10;;;1.27;;
49139;SDS011;34959;49.310;8.646;2022-08-21T01:27:48;1.63;;;1.33;;
49139;SDS011;34959;49.310;8.646;2022-08-21T01:32:41;1.95;;;1.30;;
49139;SDS011;34959;49.310;8.646;2022-08-21T01:35:07;1.30;;;1.05;;
49139;SDS011;34959;49.310;8.646;2022-08-21T01:37:33;1.73;;;1.20;;
49139;SDS011;34959;49.310;8.646;2022-08-21T01:39:59;4.30;;;1.80;;
49139;SDS011;34959;49.310;8.646;2022-08-21T01:42:24;5.05;;;1.30;;
49139;SDS011;34959;49.310;8.646;2022-08-21T01:44:50;3.85;;;1.30;;
49139;SDS011;34959;49.310;8.646;2022-08-21T01:47:15;2.17;;;1.20;;
49139;SDS011;34959;49.310;8.646;2022-08-21T01:49:41;2.33;;;1.58;;
49139;SDS011;34959;49.310;8.646;2022-08-21T01:52:07;2.83;;;1.45;;
49139;SDS011;34959;49.310;8.646;2022-08-21T01:54:33;2.30;;;1.40;;
49139;SDS011;34959;49.310;8.646;2022-08-21T01:56:59;2.40;;;1.42;;
49139;SDS011;34959;49.310;8.646;2022-08-21T01:59:25;3.78;;;1.40;;
49139;SDS011;34959;49.310;8.646;2022-08-21T02:01:51;1.58;;;1.20;;
49139;SDS011;34959;49.310;8.646;2022-08-21T02:04:18;2.35;;;1.70;;
49139;SDS011;34959;49.310;8.646;2022-08-21T02:06:44;2.15;;;1.27;;
49139;SDS011;34959;49.310;8.646;2022-08-21T02:09:10;2.25;;;1.27;;
49139;SDS011;34959;49.310;8.646;2022-08-21T02:11:36;1.92;;;1.33;;
49139;SDS011;34959;49.310;8.646;2022-08-21T02:14:05;1.95;;;1.38;;
49139;SDS011;34959;49.310;8.646;2022-08-21T02:16:31;2.53;;;1.40;;
49139;SDS011;34959;49.310;8.646;2022-08-21T02:18:57;1.95;;;1.35;;
49139;SDS011;34959;49.310;8.646;2022-08-21T02:21:22;1.90;;;1.30;;
49139;SDS011;34959;49.310;8.646;2022-08-21T02:23:47;1.63;;;1.10;;
49139;SDS011;34959;49.310;8.646;2022-08-21T02:26:13;1.50;;;1.00;;
49139;SDS011;34959;49.310;8.646;2022-08-21T02:28:38;1.63;;;1.20;;
49139;SDS011;34959;49.310;8.646;2022-08-21T02:31:05;2.30;;;1.25;;
49139;SDS011;34959;49.310;8.646;2022-08-21T02:33:30;2.55;;;1.30;;
49139;SDS011;34959;49.310;8.646;2022-08-21T02:35:56;2.15;;;1.20;;
49139;SDS011;34959;49.310;8.646;2022-08-21T02:38:26;1.80;;;1.25;;
49139;SDS011;34959;49.310;8.646;2022-08-21T02:40:54;2.17;;;1.30;;
49139;SDS011;34959;49.310;8.646;2022-08-21T02:43:21;2.30;;;1.52;;
49139;SDS011;34959;49.310;8.646;2022-08-21T02:45:47;1.98;;;1.25;;
49139;SDS011;34959;49.310;8.646;2022-08-21T02:48:14;3.75;;;1.48;;
49139;SDS011;34959;49.310;8.646;2022-08-21T02:50:52;1.60;;;1.17;;
49139;SDS011;34959;49.310;8.646;2022-08-21T02:53:19;5.40;;;1.38;;
49139;SDS011;34959;49.310;8.646;2022-08-21T02:55:45;2.28;;;1.40;;
49139;SDS011;34959;49.310;8.646;2022-08-21T02:58:12;3.35;;;1.60;;
49139;SDS011;34959;49.310;8.646;2022-08-21T03:00:40;3.85;;;1.30;;
49139;SDS011;34959;49.310;8.646;2022-08-21T03:03:06;1.88;;;1.23;;
49139;SDS011;34959;49.310;8.646;2022-08-21T03:05:32;2.55;;;1.38;;
49139;SDS011;34959;49.310;8.646;2022-08-21T03:08:00;2.88;;;1.50;;
49139;SDS011;34959;49.310;8.646;2022-08-21T03:10:27;3.13;;;1.35;;
49139;SDS011;34959;49.310;8.646;2022-08-21T03:12:53;2.58;;;1.20;;
49139;SDS011;34959;49.310;8.646;2022-08-21T03:15:20;2.88;;;1.58;;
49139;SDS011;34959;49.310;8.646;2022-08-21T03:17:48;4.72;;;1.40;;
49139;SDS011;34959;49.310;8.646;2022-08-21T03:20:15;4.07;;;1.50;;
49139;SDS011;34959;49.310;8.646;2022-08-21T03:22:42;2.35;;;1.30;;
49139;SDS011;34959;49.310;8.646;2022-08-21T03:25:07;3.97;;;1.50;;
49139;SDS011;34959;49.310;8.646;2022-08-21T03:27:34;1.98;;;1.17;;
49139;SDS011;34959;49.310;8.646;2022-08-21T03:29:59;4.75;;;1.55;;
49139;SDS011;34959;49.310;8.646;2022-08-21T03:32:25;3.13;;;1.45;;
49139;SDS011;34959;49.310;8.646;2022-08-21T03:34:53;2.28;;;1.20;;
49139;SDS011;34959;49.310;8.646;2022-08-21T03:37:19;1.80;;;1.15;;
49139;SDS011;34959;49.310;8.646;2022-08-21T03:39:44;3.15;;;1.23;;
49139;SDS011;34959;49.310;8.646;2022-08-21T03:42:10;2.10;;;1.40;;
49139;SDS011;34959;49.310;8.646;2022-08-21T03:44:36;1.90;;;1.17;;
49139;SDS011;34959;49.310;8.646;2022-08-21T03:47:02;2.88;;;1.45;;
49139;SDS011;34959;49.310;8.646;2022-08-21T03:49:28;3.83;;;1.40;;
49139;SDS011;34959;49.310;8.646;2022-08-21T03:51:53;2.17;;;1.20;;
49139;SDS011;34959;49.310;8.646;2022-08-21T03:54:19;2.63;;;1.40;;
49139;SDS011;34959;49.310;8.646;2022-08-21T03:56:45;2.45;;;1.35;;
49139;SDS011;34959;49.310;8.646;2022-08-21T03:59:10;3.78;;;1.25;;
49139;SDS011;34959;49.310;8.646;2022-08-21T04:01:36;3.13;;;1.10;;
49139;SDS011;34959;49.310;8.646;2022-08-21T04:04:02;1.75;;;1.10;;
49139;SDS011;34959;49.310;8.646;2022-08-21T04:06:28;3.35;;;1.50;;
49139;SDS011;34959;49.310;8.646;2022-08-21T04:08:54;1.90;;;1.30;;
49139;SDS011;34959;49.310;8.646;2022-08-21T04:11:20;2.65;;;1.20;;
49139;SDS011;34959;49.310;8.646;2022-08-21T04:13:45;3.25;;;1.50;;
49139;SDS011;34959;49.310;8.646;2022-08-21T04:16:12;1.70;;;1.30;;
49139;SDS011;34959;49.310;8.646;2022-08-21T04:18:37;3.50;;;1.73;;
49139;SDS011;34959;49.310;8.646;2022-08-21T04:21:03;1.88;;;1.20;;
49139;SDS011;34959;49.310;8.646;2022-08-21T04:23:29;2.22;;;1.55;;
49139;SDS011;34959;49.310;8.646;2022-08-21T04:25:55;2.97;;;1.20;;
49139;SDS011;34959;49.310;8.646;2022-08-21T04:28:22;2.55;;;1.25;;
49139;SDS011;34959;49.310;8.646;2022-08-21T04:30:48;1.60;;;1.02;;
49139;SDS011;34959;49.310;8.646;2022-08-21T04:33:15;2.55;;;1.30;;
49139;SDS011;34959;49.310;8.646;2022-08-21T04:35:40;2.33;;;1.30;;
49139;SDS011;34959;49.310;8.646;2022-08-21T04:38:07;2.45;;;1.40;;
49139;SDS011;34959;49.310;8.646;2022-08-21T04:40:32;2.03;;;1.15;;
49139;SDS011;34959;49.310;8.646;2022-08-21T04:43:00;4.57;;;1.25;;
49139;SDS011;34959;49.310;8.646;2022-08-21T04:45:37;1.75;;;1.10;;
49139;SDS011;34959;49.310;8.646;2022-08-21T04:48:07;2.10;;;1.25;;
49139;SDS011;34959;49.310;8.646;2022-08-21T04:50:39;2.17;;;1.20;;
49139;SDS011;34959;49.310;8.646;2022-08-21T04:53:21;2.97;;;1.35;;
49139;SDS011;34959;49.310;8.646;2022-08-21T04:55:56;2.20;;;1.40;;
49139;SDS011;34959;49.310;8.646;2022-08-21T04:58:23;1.92;;;1.20;;
49139;SDS011;34959;49.310;8.646;2022-08-21T05:00:51;2.92;;;1.20;;
49139;SDS011;34959;49.310;8.646;2022-08-21T05:03:18;2.08;;;1.38;;
49139;SDS011;34959;49.310;8.646;2022-08-21T05:05:43;3.83;;;1.38;;
49139;SDS011;34959;49.310;8.646;2022-08-21T05:08:09;4.20;;;1.30;;
49139;SDS011;34959;49.310;8.646;2022-08-21T05:10:37;2.00;;;1.17;;
49139;SDS011;34959;49.310;8.646;2022-08-21T05:13:03;5.72;;;1.48;;
49139;SDS011;34959;49.310;8.646;2022-08-21T05:15:30;3.10;;;1.40;;
49139;SDS011;34959;49.310;8.646;2022-08-21T05:17:55;4.07;;;1.27;;
49139;SDS011;34959;49.310;8.646;2022-08-21T05:20:21;3.83;;;1.30;;
49139;SDS011;34959;49.310;8.646;2022-08-21T05:22:46;2.55;;;1.27;;
49139;SDS011;34959;49.310;8.646;2022-08-21T05:25:12;2.05;;;1.30;;
49139;SDS011;34959;49.310;8.646;2022-08-21T05:27:37;1.75;;;1.00;;
49139;SDS011;34959;49.310;8.646;2022-08-21T05:30:04;1.92;;;1.20;;
49139;SDS011;34959;49.310;8.646;2022-08-21T05:32:33;2.08;;;1.20;;
49139;SDS011;34959;49.310;8.646;2022-08-21T05:34:59;3.13;;;1.38;;
49139;SDS011;34959;49.310;8.646;2022-08-21T05:37:24;1.98;;;1.20;;
49139;SDS011;34959;49.310;8.646;2022-08-21T05:39:50;3.50;;;1.30;;
49139;SDS011;34959;49.310;8.646;2022-08-21T05:42:15;2.30;;;1.30;;
49139;SDS011;34959;49.310;8.646;2022-08-21T05:44:41;2.70;;;1.50;;
49139;SDS011;34959;49.310;8.646;2022-08-21T05:47:08;2.03;;;1.10;;
49139;SDS011;34959;49.310;8.646;2022-08-21T05:49:35;4.28;;;1.33;;
49139;SDS011;34959;49.310;8.646;2022-08-21T05:52:01;2.08;;;1.30;;
49139;SDS011;34959;49.310;8.646;2022-08-21T05:54:27;2.30;;;1.20;;
49139;SDS011;34959;49.310;8.646;2022-08-21T05:56:52;2.10;;;1.15;;
49139;SDS011;34959;49.310;8.646;2022-08-21T05:59:18;2.35;;;1.20;;
49139;SDS011;34959;49.310;8.646;2022-08-21T06:01:43;3.42;;;1.30;;
49139;SDS011;34959;49.310;8.646;2022-08-21T06:04:10;1.58;;;1.00;;
49139;SDS011;34959;49.310;8.646;2022-08-21T06:06:36;3.13;;;1.40;;
49139;SDS011;34959;49.310;8.646;2022-08-21T06:09:02;1.77;;;1.13;;
49139;SDS011;34959;49.310;8.646;2022-08-21T06:11:28;1.85;;;1.10;;
49139;SDS011;34959;49.310;8.646;2022-08-21T06:13:54;2.67;;;1.13;;
49139;SDS011;34959;49.310;8.646;2022-08-21T06:16:19;2.28;;;1.23;;
49139;SDS011;34959;49.310;8.646;2022-08-21T06:18:44;2.53;;;1.17;;
49139;SDS011;34959;49.310;8.646;2022-08-21T06:21:11;2.33;;;1.27;;
49139;SDS011;34959;49.310;8.646;2022-08-21T06:23:37;1.67;;;1.17;;
49139;SDS011;34959;49.310;8.646;2022-08-21T06:26:04;1.73;;;1.20;;
49139;SDS011;34959;49.310;8.646;2022-08-21T06:28:30;2.47;;;1.10;;
49139;SDS011;34959;49.310;8.646;2022-08-21T06:30:56;1.70;;;1.10;;
49139;SDS011;34959;49.310;8.646;2022-08-21T06:33:21;2.30;;;1.30;;
49139;SDS011;34959;49.310;8.646;2022-08-21T06:35:47;3.58;;;1.40;;
49139;SDS011;34959;49.310;8.646;2022-08-21T06:38:13;3.15;;;1.73;;
49139;SDS011;34959;49.310;8.646;2022-08-21T06:40:39;4.32;;;1.80;;
49139;SDS011;34959;49.310;8.646;2022-08-21T06:43:05;5.10;;;1.92;;
49139;SDS011;34959;49.310;8.646;2022-08-21T06:45:32;5.20;;;1.98;;
49139;SDS011;34959;49.310;8.646;2022-08-21T06:47:58;4.82;;;2.10;;
49139;SDS011;34959;49.310;8.646;2022-08-21T06:50:24;8.10;;;2.42;;
49139;SDS011;34959;49.310;8.646;2022-08-21T06:52:49;4.45;;;1.90;;
49139;SDS011;34959;49.310;8.646;2022-08-21T06:55:15;4.68;;;2.00;;
49139;SDS011;34959;49.310;8.646;2022-08-21T06:57:41;5.80;;;2.30;;
49139;SDS011;34959;49.310;8.646;2022-08-21T07:00:07;5.38;;;2.20;;
49139;SDS011;34959;49.310;8.646;2022-08-21T07:02:34;6.25;;;2.58;;
49139;SDS011;34959;49.310;8.646;2022-08-21T07:05:00;5.53;;;2.35;;
49139;SDS011;34959;49.310;8.646;2022-08-21T07:07:25;4.63;;;2.10;;
49139;SDS011;34959;49.310;8.646;2022-08-21T07:09:51;3.40;;;2.10;;
49139;SDS011;34959;49.310;8.646;2022-08-21T07:12:16;4.72;;;2.28;;
49139;SDS011;34959;49.310;8.646;2022-08-21T07:14:41;3.55;;;2.10;;
49139;SDS011;34959;49.310;8.646;2022-08-21T07:17:07;4.80;;;2.10;;
49139;SDS011;34959;49.310;8.646;2022-08-21T07:19:33;5.15;;;2.20;;
49139;SDS011;34959;49.310;8.646;2022-08-21T07:22:00;5.97;;;2.47;;
49139;SDS011;34959;49.310;8.646;2022-08-21T07:24:26;5.57;;;2.20;;
49139;SDS011;34959;49.310;8.646;2022-08-21T07:26:52;5.88;;;2.35;;
49139;SDS011;34959;49.310;8.646;2022-08-21T07:29:17;6.35;;;2.58;;
49139;SDS011;34959;49.310;8.646;2022-08-21T07:31:43;7.95;;;3.05;;
49139;SDS011;34959;49.310;8.646;2022-08-21T07:34:09;5.43;;;2.63;;
49139;SDS011;34959;49.310;8.646;2022-08-21T07:36:34;6.35;;;2.95;;
49139;SDS011;34959;49.310;8.646;2022-08-21T07:39:00;5.60;;;2.53;;
49139;SDS011;34959;49.310;8.646;2022-08-21T07:41:26;8.88;;;2.75;;
49139;SDS011;34959;49.310;8.646;2022-08-21T07:43:54;6.32;;;2.75;;
49139;SDS011;34959;49.310;8.646;2022-08-21T07:46:20;7.38;;;2.40;;
49139;SDS011;34959;49.310;8.646;2022-08-21T07:48:46;6.93;;;2.75;;
49139;SDS011;34959;49.310;8.646;2022-08-21T07:51:12;8.70;;;2.85;;
49139;SDS011;34959;49.310;8.646;2022-08-21T07:53:39;5.53;;;2.88;;
49139;SDS011;34959;49.310;8.646;2022-08-21T07:56:05;4.78;;;2.20;;
49139;SDS011;34959;49.310;8.646;2022-08-21T07:58:31;8.55;;;2.78;;
49139;SDS011;34959;49.310;8.646;2022-08-21T08:00:56;9.63;;;3.15;;
49139;SDS011;34959;49.310;8.646;2022-08-21T08:03:22;6.30;;;2.55;;
49139;SDS011;34959;49.310;8.646;2022-08-21T08:05:47;5.22;;;2.67;;
49139;SDS011;34959;49.310;8.646;2022-08-21T08:08:13;4.68;;;2.60;;
49139;SDS011;34959;49.310;8.646;2022-08-21T08:10:38;7.32;;;2.97;;
49139;SDS011;34959;49.310;8.646;2022-08-21T08:13:04;6.70;;;2.28;;
49139;SDS011;34959;49.310;8.646;2022-08-21T08:15:30;6.32;;;2.42;;
49139;SDS011;34959;49.310;8.646;2022-08-21T08:17:55;6.95;;;2.75;;
49139;SDS011;34959;49.310;8.646;2022-08-21T08:20:22;6.50;;;2.42;;
49139;SDS011;34959;49.310;8.646;2022-08-21T08:22:48;4.57;;;2.25;;
49139;SDS011;34959;49.310;8.646;2022-08-21T08:25:14;7.10;;;3.08;;
49139;SDS011;34959;49.310;8.646;2022-08-21T08:27:40;5.45;;;3.10;;
49139;SDS011;34959;49.310;8.646;2022-08-21T08:30:06;6.40;;;2.97;;
49139;SDS011;34959;49.310;8.646;2022-08-21T08:32:33;7.22;;;2.55;;
49139;SDS011;34959;49.310;8.646;2022-08-21T08:34:58;5.70;;;2.70;;
49139;SDS011;34959;49.310;8.646;2022-08-21T08:37:24;6.38;;;2.92;;
49139;SDS011;34959;49.310;8.646;2022-08-21T08:39:50;6.05;;;2.70;;
49139;SDS011;34959;49.310;8.646;2022-08-21T08:42:17;10.85;;;2.95;;
49139;SDS011;34959;49.310;8.646;2022-08-21T08:47:32;6.78;;;2.72;;
49139;SDS011;34959;49.310;8.646;2022-08-21T08:50:03;5.25;;;2.38;;
49139;SDS011;34959;49.310;8.646;2022-08-21T08:53:00;5.47;;;2.75;;
49139;SDS011;34959;49.310;8.646;2022-08-21T08:55:33;5.53;;;2.42;;
49139;SDS011;34959;49.310;8.646;2022-08-21T08:58:01;7.65;;;2.50;;
49139;SDS011;34959;49.310;8.646;2022-08-21T09:00:30;4.82;;;2.63;;
49139;SDS011;34959;49.310;8.646;2022-08-21T09:02:57;6.70;;;2.42;;
49139;SDS011;34959;49.310;8.646;2022-08-21T09:05:26;6.45;;;2.60;;
49139;SDS011;34959;49.310;8.646;2022-08-21T09:24:07;5.35;;;2.53;;
49139;SDS011;34959;49.310;8.646;2022-08-21T09:27:07;3.72;;;2.20;;
49139;SDS011;34959;49.310;8.646;2022-08-21T09:29:38;4.40;;;2.33;;
49139;SDS011;34959;49.310;8.646;2022-08-21T09:32:09;4.95;;;2.50;;
49139;SDS011;34959;49.310;8.646;2022-08-21T09:37:31;4.47;;;2.17;;
49139;SDS011;34959;49.310;8.646;2022-08-21T09:39:59;6.13;;;2.40;;
49139;SDS011;34959;49.310;8.646;2022-08-21T09:42:27;4.68;;;2.45;;
49139;SDS011;34959;49.310;8.646;2022-08-21T09:45:11;5.72;;;2.47;;
49139;SDS011;34959;49.310;8.646;2022-08-21T09:47:40;4.13;;;2.40;;
49139;SDS011;34959;49.310;8.646;2022-08-21T09:50:14;4.00;;;2.20;;
49139;SDS011;34959;49.310;8.646;2022-08-21T09:52:46;3.90;;;2.47;;
49139;SDS011;34959;49.310;8.646;2022-08-21T09:55:16;6.13;;;2.42;;
49139;SDS011;34959;49.310;8.646;2022-08-21T09:58:03;5.22;;;2.55;;
49139;SDS011;34959;49.310;8.646;2022-08-21T10:00:30;6.72;;;2.70;;
49139;SDS011;34959;49.310;8.646;2022-08-21T10:03:11;4.22;;;2.30;;
49139;SDS011;34959;49.310;8.646;2022-08-21T10:05:39;5.82;;;2.20;;
49139;SDS011;34959;49.310;8.646;2022-08-21T10:08:04;6.97;;;2.63;;
49139;SDS011;34959;49.310;8.646;2022-08-21T10:10:32;5.75;;;2.50;;
49139;SDS011;34959;49.310;8.646;2022-08-21T10:13:13;4.07;;;2.45;;
49139;SDS011;34959;49.310;8.646;2022-08-21T10:19:00;4.10;;;2.35;;
49139;SDS011;34959;49.310;8.646;2022-08-21T10:21:33;5.40;;;2.72;;
49139;SDS011;34959;49.310;8.646;2022-08-21T10:24:09;6.00;;;2.38;;
49139;SDS011;34959;49.310;8.646;2022-08-21T10:26:48;9.63;;;3.15;;
49139;SDS011;34959;49.310;8.646;2022-08-21T10:29:42;5.93;;;2.40;;
49139;SDS011;34959;49.310;8.646;2022-08-21T10:32:36;3.67;;;2.53;;
49139;SDS011;34959;49.310;8.646;2022-08-21T10:35:24;3.65;;;2.38;;
49139;SDS011;34959;49.310;8.646;2022-08-21T10:41:01;4.95;;;2.60;;
49139;SDS011;34959;49.310;8.646;2022-08-21T10:43:42;6.53;;;2.60;;
49139;SDS011;34959;49.310;8.646;2022-08-21T10:46:23;4.72;;;2.58;;
49139;SDS011;34959;49.310;8.646;2022-08-21T10:52:02;5.40;;;2.30;;
49139;SDS011;34959;49.310;8.646;2022-08-21T10:54:56;6.25;;;2.80;;
49139;SDS011;34959;49.310;8.646;2022-08-21T10:59:52;6.63;;;2.40;;
49139;SDS011;34959;49.310;8.646;2022-08-21T11:02:31;4.93;;;2.60;;
49139;SDS011;34959;49.310;8.646;2022-08-21T11:07:54;5.93;;;2.70;;
49139;SDS011;34959;49.310;8.646;2022-08-21T11:10:25;6.40;;;2.65;;
49139;SDS011;34959;49.310;8.646;2022-08-21T11:12:52;5.90;;;2.35;;
49139;SDS011;34959;49.310;8.646;2022-08-21T11:21:15;5.93;;;2.60;;
49139;SDS011;34959;49.310;8.646;2022-08-21T11:23:57;4.70;;;2.28;;
49139;SDS011;34959;49.310;8.646;2022-08-21T11:29:07;4.32;;;2.55;;
49139;SDS011;34959;49.310;8.646;2022-08-21T11:34:25;4.63;;;2.25;;
49139;SDS011;34959;49.310;8.646;2022-08-21T11:37:09;7.05;;;2.65;;
49139;SDS011;34959;49.310;8.646;2022-08-21T11:39:41;5.30;;;2.75;;
49139;SDS011;34959;49.310;8.646;2022-08-21T11:42:33;3.33;;;2.20;;
49139;SDS011;34959;49.310;8.646;2022-08-21T11:47:56;4.72;;;2.47;;
49139;SDS011;34959;49.310;8.646;2022-08-21T11:50:27;3.92;;;2.28;;
49139;SDS011;34959;49.310;8.646;2022-08-21T11:52:56;5.43;;;2.47;;
49139;SDS011;34959;49.310;8.646;2022-08-21T11:55:29;5.22;;;2.65;;
49139;SDS011;34959;49.310;8.646;2022-08-21T11:57:59;4.18;;;2.42;;
49139;SDS011;34959;49.310;8.646;2022-08-21T12:00:33;5.18;;;2.30;;
49139;SDS011;34959;49.310;8.646;2022-08-21T12:03:09;6.30;;;2.53;;
49139;SDS011;34959;49.310;8.646;2022-08-21T12:05:38;3.47;;;2.20;;
49139;SDS011;34959;49.310;8.646;2022-08-21T12:10:39;4.13;;;2.10;;
49139;SDS011;34959;49.310;8.646;2022-08-21T12:13:08;5.10;;;2.20;;
49139;SDS011;34959;49.310;8.646;2022-08-21T12:15:46;5.07;;;2.40;;
49139;SDS011;34959;49.310;8.646;2022-08-21T12:18:22;6.20;;;2.50;;
49139;SDS011;34959;49.310;8.646;2022-08-21T12:21:31;4.30;;;2.03;;
49139;SDS011;34959;49.310;8.646;2022-08-21T12:26:35;5.22;;;2.10;;
49139;SDS011;34959;49.310;8.646;2022-08-21T12:29:13;5.95;;;2.20;;
49139;SDS011;34959;49.310;8.646;2022-08-21T12:31:48;5.88;;;2.30;;
49139;SDS011;34959;49.310;8.646;2022-08-21T12:34:19;5.97;;;2.10;;
49139;SDS011;34959;49.310;8.646;2022-08-21T12:36:48;3.85;;;2.22;;
49139;SDS011;34959;49.310;8.646;2022-08-21T12:39:20;3.72;;;2.15;;
49139;SDS011;34959;49.310;8.646;2022-08-21T12:41:49;3.97;;;2.20;;
49139;SDS011;34959;49.310;8.646;2022-08-21T12:44:22;5.13;;;2.15;;
49139;SDS011;34959;49.310;8.646;2022-08-21T12:47:05;3.88;;;2.25;;
49139;SDS011;34959;49.310;8.646;2022-08-21T12:49:59;4.03;;;2.28;;
49139;SDS011;34959;49.310;8.646;2022-08-21T12:52:40;6.53;;;2.10;;
49139;SDS011;34959;49.310;8.646;2022-08-21T12:55:11;3.45;;;2.08;;
49139;SDS011;34959;49.310;8.646;2022-08-21T12:57:39;3.03;;;2.20;;
49139;SDS011;34959;49.310;8.646;2022-08-21T13:00:07;3.80;;;2.03;;
49139;SDS011;34959;49.310;8.646;2022-08-21T13:02:42;4.32;;;2.08;;
49139;SDS011;34959;49.310;8.646;2022-08-21T13:05:14;3.20;;;2.00;;
49139;SDS011;34959;49.310;8.646;2022-08-21T13:07:45;4.35;;;2.05;;
49139;SDS011;34959;49.310;8.646;2022-08-21T13:10:23;3.67;;;2.03;;
49139;SDS011;34959;49.310;8.646;2022-08-21T13:12:52;4.95;;;2.13;;
49139;SDS011;34959;49.310;8.646;2022-08-21T13:15:24;4.18;;;2.03;;
49139;SDS011;34959;49.310;8.646;2022-08-21T13:17:53;3.67;;;1.80;;
49139;SDS011;34959;49.310;8.646;2022-08-21T13:20:20;5.40;;;2.00;;
49139;SDS011;34959;49.310;8.646;2022-08-21T13:22:48;4.30;;;2.05;;
49139;SDS011;34959;49.310;8.646;2022-08-21T13:25:14;3.28;;;2.05;;
49139;SDS011;34959;49.310;8.646;2022-08-21T13:27:42;3.22;;;1.95;;
49139;SDS011;34959;49.310;8.646;2022-08-21T13:30:11;3.33;;;2.15;;
49139;SDS011;34959;49.310;8.646;2022-08-21T13:32:40;3.20;;;2.10;;
49139;SDS011;34959;49.310;8.646;2022-08-21T13:35:08;3.20;;;2.10;;
49139;SDS011;34959;49.310;8.646;2022-08-21T13:37:35;2.85;;;1.83;;
49139;SDS011;34959;49.310;8.646;2022-08-21T13:40:06;2.88;;;1.77;;
49139;SDS011;34959;49.310;8.646;2022-08-21T13:42:32;4.10;;;2.20;;
49139;SDS011;34959;49.310;8.646;2022-08-21T13:44:58;4.38;;;2.00;;
49139;SDS011;34959;49.310;8.646;2022-08-21T13:47:24;3.42;;;1.80;;
49139;SDS011;34959;49.310;8.646;2022-08-21T13:49:50;3.10;;;1.60;;
49139;SDS011;34959;49.310;8.646;2022-08-21T13:52:21;3.17;;;2.03;;
49139;SDS011;34959;49.310;8.646;2022-08-21T13:54:59;3.40;;;1.88;;
49139;SDS011;34959;49.310;8.646;2022-08-21T13:57:32;3.47;;;1.85;;
49139;SDS011;34959;49.310;8.646;2022-08-21T14:00:19;3.25;;;1.83;;
49139;SDS011;34959;49.310;8.646;2022-08-21T14:02:47;3.15;;;1.80;;
49139;SDS011;34959;49.310;8.646;2022-08-21T14:05:37;2.90;;;1.80;;
49139;SDS011;34959;49.310;8.646;2022-08-21T14:08:03;3.78;;;2.15;;
49139;SDS011;34959;49.310;8.646;2022-08-21T14:10:35;2.92;;;1.90;;
49139;SDS011;34959;49.310;8.646;2022-08-21T14:13:14;2.72;;;1.75;;
49139;SDS011;34959;49.310;8.646;2022-08-21T14:16:23;3.33;;;1.85;;
49139;SDS011;34959;49.310;8.646;2022-08-21T14:19:10;2.75;;;1.95;;
49139;SDS011;34959;49.310;8.646;2022-08-21T14:21:47;2.95;;;1.60;;
49139;SDS011;34959;49.310;8.646;2022-08-21T14:24:14;3.00;;;1.90;;
49139;SDS011;34959;49.310;8.646;2022-08-21T14:27:00;2.90;;;1.67;;
49139;SDS011;34959;49.310;8.646;2022-08-21T14:29:35;3.33;;;1.90;;
49139;SDS011;34959;49.310;8.646;2022-08-21T14:34:37;3.17;;;2.03;;
49139;SDS011;34959;49.310;8.646;2022-08-21T14:37:05;2.55;;;1.90;;
49139;SDS011;34959;49.310;8.646;2022-08-21T14:39:31;2.42;;;1.55;;
49139;SDS011;34959;49.310;8.646;2022-08-21T14:41:56;2.83;;;1.80;;
49139;SDS011;34959;49.310;8.646;2022-08-21T14:44:22;2.58;;;1.83;;
49139;SDS011;34959;49.310;8.646;2022-08-21T14:46:48;3.63;;;1.92;;
49139;SDS011;34959;49.310;8.646;2022-08-21T14:49:13;2.85;;;1.90;;
49139;SDS011;34959;49.310;8.646;2022-08-21T14:51:38;2.75;;;1.70;;
49139;SDS011;34959;49.310;8.646;2022-08-21T14:54:05;2.17;;;1.52;;
49139;SDS011;34959;49.310;8.646;2022-08-21T14:56:31;3.80;;;2.00;;
49139;SDS011;34959;49.310;8.646;2022-08-21T14:58:58;3.00;;;1.77;;
49139;SDS011;34959;49.310;8.646;2022-08-21T15:01:29;3.83;;;1.98;;
49139;SDS011;34959;49.310;8.646;2022-08-21T15:03:55;2.63;;;1.70;;
49139;SDS011;34959;49.310;8.646;2022-08-21T15:06:23;3.00;;;1.60;;
49139;SDS011;34959;49.310;8.646;2022-08-21T15:08:48;2.35;;;1.70;;
49139;SDS011;34959;49.310;8.646;2022-08-21T15:11:18;3.50;;;1.70;;
49139;SDS011;34959;49.310;8.646;2022-08-21T15:13:45;3.30;;;1.90;;
49139;SDS011;34959;49.310;8.646;2022-08-21T15:16:11;2.70;;;1.50;;
49139;SDS011;34959;49.310;8.646;2022-08-21T15:18:37;3.38;;;1.90;;
49139;SDS011;34959;49.310;8.646;2022-08-21T15:21:02;3.13;;;1.90;;
49139;SDS011;34959;49.310;8.646;2022-08-21T15:23:28;2.50;;;1.70;;
49139;SDS011;34959;49.310;8.646;2022-08-21T15:25:53;2.97;;;1.70;;
49139;SDS011;34959;49.310;8.646;2022-08-21T15:28:20;2.45;;;1.52;;
49139;SDS011;34959;49.310;8.646;2022-08-21T15:30:46;1.90;;;1.55;;
49139;SDS011;34959;49.310;8.646;2022-08-21T15:33:12;3.47;;;1.75;;
49139;SDS011;34959;49.310;8.646;2022-08-21T15:35:38;2.72;;;1.88;;
49139;SDS011;34959;49.310;8.646;2022-08-21T15:38:04;2.28;;;1.35;;
49139;SDS011;34959;49.310;8.646;2022-08-21T15:40:30;2.45;;;1.60;;
49139;SDS011;34959;49.310;8.646;2022-08-21T15:42:57;2.95;;;1.73;;
49139;SDS011;34959;49.310;8.646;2022-08-21T15:45:24;2.10;;;1.60;;
49139;SDS011;34959;49.310;8.646;2022-08-21T15:47:51;2.47;;;1.75;;
49139;SDS011;34959;49.310;8.646;2022-08-21T15:50:16;2.25;;;1.48;;
49139;SDS011;34959;49.310;8.646;2022-08-21T15:52:42;2.17;;;1.70;;
49139;SDS011;34959;49.310;8.646;2022-08-21T15:55:08;2.08;;;1.65;;
49139;SDS011;34959;49.310;8.646;2022-08-21T15:57:35;1.55;;;1.33;;
49139;SDS011;34959;49.310;8.646;2022-08-21T16:00:12;2.25;;;1.63;;